createdAt,value
2023-04-08T00:00:30.930Z,8.60
2023-04-08T00:02:59.121Z,8.60
2023-04-08T00:05:28.600Z,8.60
2023-04-08T00:07:56.554Z,8.50
2023-04-08T00:10:25.055Z,8.50
2023-04-08T00:12:53.101Z,8.50
2023-04-08T00:15:21.094Z,8.50
2023-04-08T00:17:49.061Z,8.50
2023-04-08T00:20:17.210Z,8.50
2023-04-08T00:22:46.777Z,8.50
2023-04-08T00:25:14.797Z,8.50
2023-04-08T00:27:42.758Z,8.50
2023-04-08T00:30:11.677Z,8.50
2023-04-08T00:32:39.984Z,8.60
2023-04-08T00:35:08.730Z,8.50
2023-04-08T00:37:37.175Z,8.50
2023-04-08T00:40:07.467Z,8.40
2023-04-08T00:42:35.506Z,8.40
2023-04-08T00:45:03.792Z,8.40
2023-04-08T00:47:32.057Z,8.40
2023-04-08T00:50:00.318Z,8.50
2023-04-08T00:52:28.359Z,8.50
2023-04-08T00:54:57.244Z,8.50
2023-04-08T00:57:26.601Z,8.50
2023-04-08T00:59:54.715Z,8.50
2023-04-08T01:02:32.117Z,8.50
2023-04-08T01:05:04.658Z,8.50
2023-04-08T01:07:35.155Z,8.50
2023-04-08T01:10:08.788Z,8.40
2023-04-08T01:12:43.244Z,8.40
2023-04-08T01:15:13.629Z,8.40
2023-04-08T01:17:42.632Z,8.40
2023-04-08T01:20:12.368Z,8.40
2023-04-08T01:22:54.831Z,8.30
2023-04-08T01:25:24.933Z,8.30
2023-04-08T01:27:56.786Z,8.30
2023-04-08T01:30:26.928Z,8.30
2023-04-08T01:32:56.732Z,8.30
2023-04-08T01:35:25.728Z,8.20
2023-04-08T01:37:55.379Z,8.30
2023-04-08T01:40:23.473Z,8.30
2023-04-08T01:42:54.144Z,8.30
2023-04-08T01:45:24.614Z,8.30
2023-04-08T01:47:53.947Z,8.30
2023-04-08T01:50:22.408Z,8.30
2023-04-08T01:52:53.801Z,8.30
2023-04-08T01:55:22.816Z,8.30
2023-04-08T01:57:53.634Z,8.30
2023-04-08T02:00:26.021Z,8.30
2023-04-08T02:02:55.719Z,8.30
2023-04-08T02:05:23.997Z,8.30
2023-04-08T02:07:52.091Z,8.30
2023-04-08T02:10:20.249Z,8.30
2023-04-08T02:12:48.973Z,8.30
2023-04-08T02:15:17.274Z,8.30
2023-04-08T02:17:50.520Z,8.30
2023-04-08T02:20:20.598Z,8.30
2023-04-08T02:22:51.625Z,8.30
2023-04-08T02:25:24.323Z,8.30
2023-04-08T02:27:54.074Z,8.20
2023-04-08T02:30:23.551Z,8.30
2023-04-08T02:32:54.882Z,8.20
2023-04-08T02:35:24.039Z,8.20
2023-04-08T02:37:52.248Z,8.20
2023-04-08T02:40:27.780Z,8.20
2023-04-08T02:42:56.537Z,8.10
2023-04-08T02:45:27.910Z,8.10
2023-04-08T02:47:57.374Z,8.10
2023-04-08T02:50:25.463Z,8.10
2023-04-08T02:52:53.420Z,8.10
2023-04-08T02:55:21.517Z,8.10
2023-04-08T02:57:50.291Z,8.10
2023-04-08T03:00:18.638Z,8.10
2023-04-08T03:02:46.824Z,8.10
2023-04-08T03:05:16.838Z,8.10
2023-04-08T03:07:44.838Z,8.10
2023-04-08T03:10:14.355Z,8.10
2023-04-08T03:12:42.303Z,8.10
2023-04-08T03:15:10.940Z,8.10
2023-04-08T03:17:38.995Z,8.10
2023-04-08T03:20:08.300Z,8.10
2023-04-08T03:22:38.122Z,8.10
2023-04-08T03:25:08.373Z,8.10
2023-04-08T03:27:36.344Z,8.10
2023-04-08T03:30:04.581Z,8.10
2023-04-08T03:32:33.705Z,8.10
2023-04-08T03:35:01.782Z,8.10
2023-04-08T03:37:29.778Z,8.20
2023-04-08T03:39:59.115Z,8.20
2023-04-08T03:42:27.210Z,8.10
2023-04-08T03:44:55.214Z,8.10
2023-04-08T03:47:23.214Z,8.10
2023-04-08T03:49:51.242Z,8.10
2023-04-08T03:52:19.204Z,8.20
2023-04-08T03:54:47.166Z,8.20
2023-04-08T03:57:16.511Z,8.20
2023-04-08T03:59:44.464Z,8.10
2023-04-08T04:02:12.505Z,8.20
2023-04-08T04:04:40.643Z,8.20
2023-04-08T04:07:08.654Z,8.20
2023-04-08T04:09:36.643Z,8.20
2023-04-08T04:12:04.713Z,8.20
2023-04-08T04:14:34.021Z,8.30
2023-04-08T04:17:02.047Z,8.30
2023-04-08T04:19:32.174Z,8.20
2023-04-08T04:22:00.172Z,8.20
2023-04-08T04:24:28.179Z,8.20
2023-04-08T04:26:56.586Z,8.20
2023-04-08T04:29:24.619Z,8.20
2023-04-08T04:31:53.936Z,8.20
2023-04-08T04:34:21.938Z,8.20
2023-04-08T04:36:49.897Z,8.20
2023-04-08T04:39:18.195Z,8.20
2023-04-08T04:41:47.336Z,8.20
2023-04-08T04:44:15.929Z,8.10
2023-04-08T04:46:44.037Z,8.20
2023-04-08T04:49:13.393Z,8.20
2023-04-08T04:51:41.504Z,8.20
2023-04-08T04:54:09.489Z,8.20
2023-04-08T04:56:40.153Z,8.20
2023-04-08T04:59:08.676Z,8.30
2023-04-08T05:01:36.762Z,8.20
2023-04-08T05:04:04.853Z,8.20
2023-04-08T05:06:34.234Z,8.20
2023-04-08T05:09:02.231Z,8.20
2023-04-08T05:11:30.271Z,8.30
2023-04-08T05:13:58.208Z,8.20
2023-04-08T05:16:26.235Z,8.30
2023-04-08T05:18:54.233Z,8.20
2023-04-08T05:21:22.208Z,8.20
2023-04-08T05:23:53.051Z,8.30
2023-04-08T05:26:21.718Z,8.30
2023-04-08T05:28:50.035Z,8.30
2023-04-08T05:31:18.604Z,8.40
2023-04-08T05:33:46.620Z,8.40
2023-04-08T05:36:15.358Z,8.50
2023-04-08T05:38:44.300Z,8.60
2023-04-08T05:41:13.658Z,8.50
2023-04-08T05:43:41.612Z,8.50
2023-04-08T05:46:10.522Z,8.50
2023-04-08T05:48:38.612Z,8.50
2023-04-08T05:51:06.593Z,8.60
2023-04-08T05:53:34.561Z,8.60
2023-04-08T05:56:02.480Z,8.60
2023-04-08T05:58:31.819Z,8.60
2023-04-08T06:00:59.860Z,8.60
2023-04-08T06:03:27.947Z,8.70
2023-04-08T06:05:56.605Z,8.70
2023-04-08T06:08:24.778Z,8.70
2023-04-08T06:10:53.505Z,8.80
2023-04-08T06:13:22.046Z,8.90
2023-04-08T06:15:51.423Z,8.80
2023-04-08T06:18:19.405Z,8.80
2023-04-08T06:20:47.386Z,8.80
2023-04-08T06:23:15.446Z,8.80
2023-04-08T06:25:43.456Z,8.80
2023-04-08T06:28:11.452Z,8.80
2023-04-08T06:30:39.548Z,8.90
2023-04-08T06:33:09.311Z,8.90
2023-04-08T06:35:37.821Z,9.00
2023-04-08T06:38:05.881Z,9.00
2023-04-08T06:40:33.962Z,9.00
2023-04-08T06:43:01.971Z,9.10
2023-04-08T06:45:30.156Z,9.10
2023-04-08T06:47:58.227Z,9.10
2023-04-08T06:50:27.628Z,9.10
2023-04-08T06:52:56.101Z,9.20
2023-04-08T06:55:24.067Z,9.20
2023-04-08T06:57:52.088Z,9.20
2023-04-08T07:00:20.073Z,9.20
2023-04-08T07:02:48.090Z,9.30
2023-04-08T07:05:16.606Z,9.20
2023-04-08T07:07:46.278Z,9.30
2023-04-08T07:10:14.360Z,9.30
2023-04-08T07:12:42.312Z,9.40
2023-04-08T07:15:11.354Z,9.40
2023-04-08T07:17:39.464Z,9.50
2023-04-08T07:20:08.793Z,9.60
2023-04-08T07:22:36.789Z,9.70
2023-04-08T07:25:06.984Z,9.90
2023-04-08T07:27:35.196Z,9.90
2023-04-08T07:30:03.282Z,10.00
2023-04-08T07:32:32.147Z,10.00
2023-04-08T07:35:00.747Z,10.10
2023-04-08T07:37:29.073Z,10.10
2023-04-08T07:39:57.113Z,10.10
2023-04-08T07:42:27.332Z,10.10
2023-04-08T07:44:55.710Z,10.00
2023-04-08T07:47:23.755Z,10.00
2023-04-08T07:49:51.760Z,10.00
2023-04-08T07:52:19.730Z,10.00
2023-04-08T07:54:47.698Z,10.00
2023-04-08T07:57:15.685Z,10.10
2023-04-08T07:59:46.530Z,10.20
2023-04-08T08:02:14.567Z,10.20
2023-04-08T08:04:42.706Z,10.20
2023-04-08T08:07:11.101Z,10.30
2023-04-08T08:09:39.040Z,10.40
2023-04-08T08:12:07.074Z,10.60
2023-04-08T08:14:35.058Z,10.70
2023-04-08T08:17:04.961Z,10.90
2023-04-08T08:19:32.912Z,11.00
2023-04-08T08:22:00.932Z,11.10
2023-04-08T08:24:28.893Z,11.20
2023-04-08T08:26:56.952Z,11.30
2023-04-08T08:29:24.916Z,11.40
2023-04-08T08:31:52.909Z,11.40
2023-04-08T08:34:22.245Z,11.40
2023-04-08T08:36:50.332Z,11.40
2023-04-08T08:39:18.427Z,11.50
2023-04-08T08:41:46.649Z,11.60
2023-04-08T08:44:14.682Z,11.70
2023-04-08T08:46:45.909Z,11.70
2023-04-08T08:49:14.047Z,11.70
2023-04-08T08:51:46.595Z,11.70
2023-04-08T08:54:16.015Z,11.70
2023-04-08T08:56:44.159Z,11.70
2023-04-08T08:59:12.145Z,11.80
2023-04-08T09:01:41.958Z,11.90
2023-04-08T09:04:12.401Z,12.00
2023-04-08T09:06:40.551Z,12.10
2023-04-08T09:09:11.457Z,12.20
2023-04-08T09:11:40.844Z,12.20
2023-04-08T09:14:22.731Z,12.30
2023-04-08T09:16:51.560Z,12.20
2023-04-08T09:19:20.307Z,12.20
2023-04-08T09:22:06.852Z,12.10
2023-04-08T09:24:37.284Z,12.10
2023-04-08T09:27:06.090Z,12.20
2023-04-08T09:29:37.358Z,12.20
2023-04-08T09:32:06.749Z,12.10
2023-04-08T09:34:34.843Z,12.10
2023-04-08T09:37:03.064Z,12.00
2023-04-08T09:39:32.278Z,12.00
2023-04-08T09:42:03.448Z,12.00
2023-04-08T09:44:34.678Z,12.10
2023-04-08T09:47:09.506Z,12.10
2023-04-08T09:49:44.906Z,12.10
2023-04-08T09:52:16.397Z,12.10
2023-04-08T09:54:51.734Z,12.10
2023-04-08T09:57:29.715Z,12.00
2023-04-08T10:00:05.379Z,12.00
2023-04-08T10:02:40.403Z,12.00
2023-04-08T10:05:10.125Z,12.20
2023-04-08T10:07:38.406Z,12.50
2023-04-08T10:10:09.295Z,12.90
2023-04-08T10:12:39.107Z,13.20
2023-04-08T10:15:26.701Z,13.40
2023-04-08T10:17:55.338Z,13.60
2023-04-08T10:20:42.911Z,13.60
2023-04-08T10:23:13.278Z,13.60
2023-04-08T10:25:42.443Z,13.60
2023-04-08T10:28:35.593Z,13.60
2023-04-08T10:31:03.716Z,13.70
2023-04-08T10:33:38.477Z,13.80
2023-04-08T10:36:13.347Z,13.90
2023-04-08T10:38:42.684Z,14.10
2023-04-08T10:41:12.033Z,14.20
2023-04-08T10:43:41.426Z,14.20
2023-04-08T10:46:11.933Z,14.20
2023-04-08T10:48:40.204Z,14.20
2023-04-08T10:51:08.312Z,14.30
2023-04-08T10:53:37.176Z,14.40
2023-04-08T10:56:06.401Z,14.40
2023-04-08T10:58:34.405Z,14.50
2023-04-08T11:01:08.309Z,14.50
2023-04-08T11:03:37.830Z,14.60
2023-04-08T11:06:07.482Z,14.70
2023-04-08T11:08:36.702Z,14.90
2023-04-08T11:11:08.869Z,15.00
2023-04-08T11:13:37.808Z,15.00
2023-04-08T11:16:17.763Z,14.90
2023-04-08T11:18:54.185Z,14.90
2023-04-08T11:21:24.140Z,14.90
2023-04-08T11:23:53.339Z,14.90
2023-04-08T11:26:22.116Z,14.90
2023-04-08T11:28:51.645Z,14.80
2023-04-08T11:31:24.742Z,14.70
2023-04-08T11:33:55.424Z,14.50
2023-04-08T11:36:23.414Z,14.50
2023-04-08T11:38:51.404Z,14.50
2023-04-08T11:41:19.369Z,14.50
2023-04-08T11:43:57.689Z,14.60
2023-04-08T11:46:27.235Z,14.80
2023-04-08T11:48:59.932Z,14.90
2023-04-08T11:51:28.610Z,14.90
2023-04-08T11:53:57.265Z,14.90
2023-04-08T11:56:26.480Z,14.90
2023-04-08T11:58:54.544Z,14.90
2023-04-08T12:01:22.654Z,14.90
2023-04-08T12:04:04.352Z,14.90
2023-04-08T12:06:32.512Z,15.10
2023-04-08T12:09:00.528Z,15.20
2023-04-08T12:11:28.623Z,15.20
2023-04-08T12:13:57.336Z,15.30
2023-04-08T12:16:25.376Z,15.30
2023-04-08T12:18:53.372Z,15.30
2023-04-08T12:21:22.821Z,15.30
2023-04-08T12:23:51.050Z,15.30
2023-04-08T12:26:19.739Z,15.20
2023-04-08T12:28:47.728Z,15.10
2023-04-08T12:31:15.819Z,14.90
2023-04-08T12:33:44.081Z,14.80
2023-04-08T12:36:13.765Z,14.90
2023-04-08T12:38:43.205Z,15.10
2023-04-08T12:41:11.416Z,15.20
2023-04-08T12:43:39.717Z,15.30
2023-04-08T12:46:07.958Z,15.20
2023-04-08T12:48:36.730Z,15.10
2023-04-08T12:51:04.779Z,15.00
2023-04-08T12:53:32.728Z,15.00
2023-04-08T12:56:02.845Z,15.00
2023-04-08T12:58:30.879Z,15.10
2023-04-08T13:00:58.867Z,15.10
2023-04-08T13:03:29.265Z,15.10
2023-04-08T13:05:59.027Z,15.10
2023-04-08T13:08:27.036Z,15.00
2023-04-08T13:10:55.582Z,14.90
2023-04-08T13:13:24.960Z,14.90
2023-04-08T13:15:52.982Z,14.90
2023-04-08T13:18:20.931Z,15.10
2023-04-08T13:20:48.902Z,15.30
2023-04-08T13:23:17.952Z,15.40
2023-04-08T13:25:46.524Z,15.30
2023-04-08T13:28:14.537Z,15.30
2023-04-08T13:30:43.859Z,15.20
2023-04-08T13:33:12.104Z,15.20
2023-04-08T13:35:40.234Z,15.20
2023-04-08T13:38:08.535Z,15.30
2023-04-08T13:40:36.833Z,15.30
2023-04-08T13:43:04.814Z,15.40
2023-04-08T13:45:32.877Z,15.50
2023-04-08T13:48:02.258Z,15.70
2023-04-08T13:50:31.728Z,15.80
2023-04-08T13:52:59.865Z,15.80
2023-04-08T13:55:27.903Z,15.80
2023-04-08T13:57:56.056Z,15.80
2023-04-08T14:00:25.490Z,15.90
2023-04-08T14:02:53.571Z,15.90
2023-04-08T14:05:23.019Z,15.80
2023-04-08T14:07:51.039Z,15.70
2023-04-08T14:10:19.069Z,15.50
2023-04-08T14:12:47.616Z,15.40
2023-04-08T14:15:15.699Z,15.10
2023-04-08T14:17:43.718Z,15.00
2023-04-08T14:20:12.271Z,14.90
2023-04-08T14:22:41.922Z,15.00
2023-04-08T14:25:10.526Z,15.10
2023-04-08T14:27:51.002Z,15.30
2023-04-08T14:30:25.119Z,15.30
2023-04-08T14:32:53.400Z,15.30
2023-04-08T14:35:21.502Z,15.30
2023-04-08T14:37:50.952Z,15.40
2023-04-08T14:40:18.917Z,15.50
2023-04-08T14:42:49.745Z,15.60
2023-04-08T14:45:18.140Z,15.60
2023-04-08T14:47:46.252Z,15.60
2023-04-08T14:50:14.276Z,15.60
2023-04-08T14:52:42.337Z,15.50
2023-04-08T14:55:12.058Z,15.50
2023-04-08T14:57:40.081Z,15.50
2023-04-08T15:00:09.950Z,15.40
2023-04-08T15:02:38.145Z,15.30
2023-04-08T15:05:07.062Z,15.30
2023-04-08T15:07:35.644Z,15.40
2023-04-08T15:10:03.712Z,15.40
2023-04-08T15:12:33.406Z,15.50
2023-04-08T15:15:01.437Z,15.50
2023-04-08T15:17:29.511Z,15.50
2023-04-08T15:19:58.655Z,15.60
2023-04-08T15:22:27.078Z,15.70
2023-04-08T15:24:55.412Z,15.80
2023-04-08T15:27:23.355Z,16.00
2023-04-08T15:29:52.908Z,16.10
2023-04-08T15:32:20.949Z,16.20
2023-04-08T15:34:50.592Z,16.30
2023-04-08T15:37:20.385Z,16.30
2023-04-08T15:39:48.358Z,16.20
2023-04-08T15:42:16.331Z,16.20
2023-04-08T15:44:44.284Z,16.20
2023-04-08T15:47:13.622Z,16.20
2023-04-08T15:49:41.588Z,16.20
2023-04-08T15:52:09.662Z,16.20
2023-04-08T15:54:37.762Z,16.20
2023-04-08T15:57:05.865Z,16.10
2023-04-08T15:59:33.843Z,16.10
2023-04-08T16:02:01.993Z,16.20
2023-04-08T16:04:31.383Z,16.30
2023-04-08T16:06:59.469Z,16.50
2023-04-08T16:09:27.431Z,16.50
2023-04-08T16:11:55.452Z,16.60
2023-04-08T16:14:23.520Z,16.70
2023-04-08T16:16:51.506Z,16.70
2023-04-08T16:19:22.171Z,16.60
2023-04-08T16:21:51.528Z,16.60
2023-04-08T16:24:20.776Z,16.60
2023-04-08T16:26:48.804Z,16.60
2023-04-08T16:29:16.864Z,16.70
2023-04-08T16:31:44.856Z,16.70
2023-04-08T16:34:12.789Z,16.90
2023-04-08T16:36:40.952Z,16.90
2023-04-08T16:39:10.512Z,17.10
2023-04-08T16:41:39.484Z,17.20
2023-04-08T16:44:07.610Z,17.30
2023-04-08T16:46:36.195Z,17.50
2023-04-08T16:49:04.253Z,17.50
2023-04-08T16:51:32.238Z,17.40
2023-04-08T16:54:00.530Z,17.30
2023-04-08T16:56:30.218Z,17.20
2023-04-08T16:58:58.162Z,17.10
2023-04-08T17:01:27.100Z,17.00
2023-04-08T17:03:55.498Z,16.80
2023-04-08T17:06:24.100Z,16.70
2023-04-08T17:08:53.775Z,16.50
2023-04-08T17:11:21.990Z,16.40
2023-04-08T17:13:51.506Z,16.30
2023-04-08T17:16:19.807Z,16.10
2023-04-08T17:18:47.916Z,15.90
2023-04-08T17:21:16.083Z,15.70
2023-04-08T17:23:44.145Z,15.40
2023-04-08T17:26:12.807Z,15.20
2023-04-08T17:28:40.924Z,15.10
2023-04-08T17:31:10.953Z,15.00
2023-04-08T17:33:38.954Z,14.90
2023-04-08T17:36:07.582Z,14.80
2023-04-08T17:38:39.696Z,14.70
2023-04-08T17:41:09.957Z,14.50
2023-04-08T17:43:38.127Z,14.40
2023-04-08T17:46:06.325Z,14.40
2023-04-08T17:48:36.539Z,14.30
2023-04-08T17:51:06.233Z,14.20
2023-04-08T17:53:34.960Z,14.10
2023-04-08T17:56:03.198Z,14.00
2023-04-08T17:58:31.153Z,13.90
2023-04-08T18:00:59.268Z,13.80
2023-04-08T18:03:27.475Z,13.70
2023-04-08T18:05:57.016Z,13.60
2023-04-08T18:08:25.014Z,13.60
2023-04-08T18:10:53.083Z,13.40
2023-04-08T18:13:21.118Z,13.30
2023-04-08T18:15:49.107Z,13.20
2023-04-08T18:18:20.113Z,13.20
2023-04-08T18:20:48.113Z,13.20
2023-04-08T18:23:17.497Z,13.10
2023-04-08T18:25:47.332Z,13.00
2023-04-08T18:28:15.608Z,13.00
2023-04-08T18:30:43.797Z,13.00
2023-04-08T18:33:12.006Z,13.00
2023-04-08T18:35:40.181Z,13.00
2023-04-08T18:38:08.283Z,13.00
2023-04-08T18:40:37.765Z,13.00
2023-04-08T18:43:06.036Z,13.00
2023-04-08T18:45:34.115Z,13.00
2023-04-08T18:48:02.190Z,12.90
2023-04-08T18:50:30.263Z,12.90
2023-04-08T18:52:58.213Z,12.80
2023-04-08T18:55:26.242Z,12.80
2023-04-08T18:57:55.577Z,12.80
2023-04-08T19:00:23.696Z,12.80
2023-04-08T19:02:51.768Z,12.80
2023-04-08T19:05:20.250Z,12.80
2023-04-08T19:07:48.313Z,12.80
2023-04-08T19:10:16.290Z,12.80
2023-04-08T19:12:44.338Z,12.80
2023-04-08T19:15:14.676Z,12.80
2023-04-08T19:17:42.708Z,12.80
2023-04-08T19:20:11.384Z,12.80
2023-04-08T19:22:40.703Z,12.80
2023-04-08T19:25:09.251Z,12.80
2023-04-08T19:27:37.576Z,12.80
2023-04-08T19:30:06.739Z,12.80
2023-04-08T19:32:36.368Z,12.80
2023-04-08T19:35:04.614Z,12.80
2023-04-08T19:37:32.636Z,12.80
2023-04-08T19:40:00.604Z,12.70
2023-04-08T19:42:29.141Z,12.70
2023-04-08T19:44:57.121Z,12.70
2023-04-08T19:47:25.123Z,12.60
2023-04-08T19:49:54.434Z,12.60
2023-04-08T19:52:22.486Z,12.60
2023-04-08T19:54:51.605Z,12.60
2023-04-08T19:57:19.876Z,12.60
2023-04-08T19:59:49.695Z,12.50
2023-04-08T20:02:17.709Z,12.50
2023-04-08T20:04:46.179Z,12.50
2023-04-08T20:07:15.665Z,12.40
2023-04-08T20:09:43.639Z,12.40
2023-04-08T20:12:11.563Z,12.40
2023-04-08T20:14:43.239Z,12.40
2023-04-08T20:17:11.284Z,12.30
2023-04-08T20:19:40.240Z,12.30
2023-04-08T20:22:08.264Z,12.30
2023-04-08T20:24:37.701Z,12.30
2023-04-08T20:27:05.650Z,12.30
2023-04-08T20:29:34.431Z,12.20
2023-04-08T20:32:02.380Z,12.30
2023-04-08T20:34:30.361Z,12.20
2023-04-08T20:36:58.387Z,12.20
2023-04-08T20:39:29.991Z,12.10
2023-04-08T20:41:59.672Z,12.10
2023-04-08T20:44:28.337Z,12.10
2023-04-08T20:46:56.364Z,12.10
2023-04-08T20:49:24.786Z,12.10
2023-04-08T20:51:52.739Z,12.10
2023-04-08T20:54:20.719Z,12.10
2023-04-08T20:56:48.737Z,12.20
2023-04-08T20:59:18.053Z,12.20
2023-04-08T21:01:46.218Z,12.20
2023-04-08T21:04:14.333Z,12.20
2023-04-08T21:06:42.360Z,12.20
2023-04-08T21:09:11.375Z,12.10
2023-04-08T21:11:39.325Z,12.10
2023-04-08T21:14:07.321Z,12.00
2023-04-08T21:16:36.662Z,12.00
2023-04-08T21:19:04.684Z,11.90
2023-04-08T21:21:32.733Z,11.90
2023-04-08T21:24:01.474Z,11.80
2023-04-08T21:26:29.519Z,11.80
2023-04-08T21:28:57.575Z,11.70
2023-04-08T21:31:25.543Z,11.70
2023-04-08T21:33:54.985Z,11.70
2023-04-08T21:36:22.989Z,11.70
2023-04-08T21:38:51.369Z,11.70
2023-04-08T21:41:19.433Z,11.70
2023-04-08T21:43:48.508Z,11.70
2023-04-08T21:46:16.555Z,11.70
2023-04-08T21:48:44.591Z,11.60
2023-04-08T21:51:17.752Z,11.60
2023-04-08T21:53:46.081Z,11.50
2023-04-08T21:56:14.162Z,11.50
2023-04-08T21:58:42.224Z,11.40
2023-04-08T22:01:10.302Z,11.30
2023-04-08T22:03:38.414Z,11.20
2023-04-08T22:06:10.975Z,11.20
2023-04-08T22:08:42.149Z,11.10
2023-04-08T22:11:10.146Z,11.00
2023-04-08T22:13:38.140Z,11.00
2023-04-08T22:16:07.764Z,10.90
2023-04-08T22:18:35.787Z,10.90
2023-04-08T22:21:03.971Z,10.80
2023-04-08T22:23:32.001Z,10.80
2023-04-08T22:26:01.392Z,10.70
2023-04-08T22:28:29.542Z,10.70
2023-04-08T22:30:57.488Z,10.60
2023-04-08T22:33:25.716Z,10.60
2023-04-08T22:35:53.756Z,10.60
2023-04-08T22:38:21.894Z,10.50
2023-04-08T22:40:49.901Z,10.50
2023-04-08T22:43:19.234Z,10.40
2023-04-08T22:45:47.221Z,10.40
2023-04-08T22:48:15.470Z,10.40
2023-04-08T22:50:43.633Z,10.30
2023-04-08T22:53:11.817Z,10.30
2023-04-08T22:55:39.881Z,10.30
2023-04-08T22:58:07.869Z,10.20
2023-04-08T23:00:37.202Z,10.20
2023-04-08T23:03:05.721Z,10.20
2023-04-08T23:05:33.869Z,10.20
2023-04-08T23:08:01.861Z,10.20
2023-04-08T23:10:29.805Z,10.10
2023-04-08T23:12:57.804Z,10.10
2023-04-08T23:15:25.866Z,10.10
2023-04-08T23:17:55.293Z,10.00
2023-04-08T23:20:23.380Z,10.00
2023-04-08T23:22:51.753Z,10.00
2023-04-08T23:25:19.876Z,9.90
2023-04-08T23:27:47.860Z,9.90
2023-04-08T23:30:17.276Z,9.90
2023-04-08T23:32:45.420Z,9.80
2023-04-08T23:35:16.427Z,9.80
2023-04-08T23:37:44.636Z,9.80
2023-04-08T23:40:13.076Z,9.70
2023-04-08T23:42:41.029Z,9.70
2023-04-08T23:45:09.721Z,9.70
2023-04-08T23:47:37.731Z,9.60
2023-04-08T23:50:06.716Z,9.60
2023-04-08T23:52:36.010Z,9.60
2023-04-08T23:55:04.060Z,9.60
2023-04-08T23:57:32.049Z,9.50
